createdAt,value
2022-08-07T00:02:55.033Z,19.38
2022-08-07T00:08:07.732Z,19.22
2022-08-07T00:13:24.155Z,19.1
2022-08-07T00:18:32.536Z,19
2022-08-07T00:23:44.946Z,18.92
2022-08-07T00:28:57.276Z,18.84
2022-08-07T00:34:09.963Z,18.78
2022-08-07T00:39:21.943Z,18.7
2022-08-07T00:44:34.329Z,18.67
2022-08-07T00:50:17.251Z,18.68
2022-08-07T00:54:59.196Z,18.65
2022-08-07T01:00:11.455Z,18.74
2022-08-07T01:05:24.499Z,18.86
2022-08-07T01:10:36.425Z,18.84
2022-08-07T01:16:01.475Z,18.74
2022-08-07T01:21:01.009Z,18.63
2022-08-07T01:26:13.353Z,18.48
2022-08-07T01:31:26.345Z,18.28
2022-08-07T01:36:40.517Z,18.17
2022-08-07T01:41:55.201Z,18.13
2022-08-07T01:47:14.715Z,18.11
2022-08-07T01:52:15.965Z,18.1
2022-08-07T01:58:01.759Z,18.04
2022-08-07T02:03:12.610Z,17.98
2022-08-07T02:07:58.842Z,17.91
2022-08-07T02:13:11.240Z,17.94
2022-08-07T02:18:25.951Z,18
2022-08-07T02:23:36.384Z,18.06
2022-08-07T02:28:48.693Z,18.04
2022-08-07T02:34:02.002Z,18.05
2022-08-07T02:39:16.120Z,18.1
2022-08-07T02:44:26.770Z,18.12
2022-08-07T02:49:56.612Z,18.1
2022-08-07T02:54:53.192Z,18.06
2022-08-07T03:05:20.460Z,17.79
2022-08-07T03:10:30.262Z,17.6
2022-08-07T03:15:48.118Z,17.51
2022-08-07T03:26:07.455Z,17.53
2022-08-07T03:31:23.767Z,17.6
2022-08-07T03:36:32.204Z,17.7
2022-08-07T03:41:50.833Z,17.81
2022-08-07T03:47:11.686Z,17.9
2022-08-07T03:52:15.982Z,17.94
2022-08-07T03:58:08.629Z,17.98
2022-08-07T04:02:37.069Z,18
2022-08-07T04:07:49.892Z,17.97
2022-08-07T04:13:01.887Z,17.98
2022-08-07T04:18:31.716Z,17.97
2022-08-07T04:23:43.193Z,17.98
2022-08-07T04:28:39.294Z,18.05
2022-08-07T04:33:54.750Z,18.1
2022-08-07T04:39:04.108Z,18.16
2022-08-07T04:44:19.008Z,18.24
2022-08-07T04:49:28.783Z,18.35
2022-08-07T04:54:41.333Z,18.44
2022-08-07T05:00:08.203Z,18.51
2022-08-07T05:05:11.384Z,18.47
2022-08-07T05:10:19.219Z,18.45
2022-08-07T05:15:31.405Z,18.47
2022-08-07T05:20:44.059Z,18.57
2022-08-07T05:26:11.363Z,18.65
2022-08-07T05:31:08.941Z,18.73
2022-08-07T05:36:22.474Z,18.8
2022-08-07T05:42:00.207Z,18.8
2022-08-07T05:46:46.394Z,18.84
2022-08-07T05:51:59.131Z,18.97
2022-08-07T05:57:11.436Z,19.1
2022-08-07T06:02:28.576Z,19.24
2022-08-07T06:08:09.021Z,19.37
2022-08-07T06:18:01.485Z,19.44
2022-08-07T06:23:25.401Z,19.54
2022-08-07T06:28:27.268Z,19.6
2022-08-07T06:33:38.749Z,19.71
2022-08-07T06:38:58.926Z,19.8
2022-08-07T06:44:06.811Z,19.87
2022-08-07T06:49:16.032Z,19.99
2022-08-07T06:55:30.690Z,20.13
2022-08-07T07:00:10.607Z,20.15
2022-08-07T07:04:54.828Z,20.19
2022-08-07T07:10:06.082Z,20.24
2022-08-07T07:15:23.696Z,20.41
2022-08-07T07:20:31.383Z,20.58
2022-08-07T07:26:31.777Z,20.7
2022-08-07T07:30:56.269Z,20.84
2022-08-07T07:36:12.681Z,20.9
2022-08-07T07:41:21.398Z,20.91
2022-08-07T07:46:35.959Z,20.95
2022-08-07T07:51:57.717Z,21.03
2022-08-07T07:56:58.293Z,21.12
2022-08-07T08:02:10.956Z,21.21
2022-08-07T08:07:23.017Z,21.28
2022-08-07T08:17:56.822Z,21.33
2022-08-07T08:28:12.425Z,21.46
2022-08-07T08:33:24.943Z,21.4
2022-08-07T08:38:38.648Z,21.4
2022-08-07T08:43:50.489Z,21.56
2022-08-07T08:49:01.838Z,21.66
2022-08-07T08:54:15.466Z,21.75
2022-08-07T08:59:27.890Z,21.88
2022-08-07T09:04:40.147Z,22
2022-08-07T09:09:56.959Z,22.09
2022-08-07T09:16:21.078Z,22.14
2022-08-07T09:25:29.813Z,22.28
2022-08-07T09:30:42.155Z,22.26
2022-08-07T09:36:01.399Z,22.39
2022-08-07T09:41:07.498Z,22.57
2022-08-07T09:46:28.981Z,22.69
2022-08-07T09:52:11.110Z,22.94
2022-08-07T09:56:46.376Z,23.24
2022-08-07T10:01:57.616Z,23.51
2022-08-07T10:07:10.803Z,23.7
2022-08-07T10:18:00.599Z,24.17
2022-08-07T10:22:47.201Z,24.35
2022-08-07T10:27:59.641Z,24.54
2022-08-07T10:33:13.033Z,24.74
2022-08-07T10:38:35.619Z,25.03
2022-08-07T10:43:36.888Z,25.36
2022-08-07T10:48:49.332Z,25.69
2022-08-07T10:59:15.722Z,25.97
2022-08-07T11:04:31.786Z,26.26
2022-08-07T11:10:06.821Z,26.4
2022-08-07T11:14:57.210Z,26.63
2022-08-07T11:20:04.074Z,26.94
2022-08-07T11:25:16.566Z,27.25
2022-08-07T11:30:39.317Z,27.51
2022-08-07T11:35:59.354Z,27.9
2022-08-07T11:40:56.567Z,28.31
2022-08-07T11:46:09.293Z,28.63
2022-08-07T11:51:22.485Z,29.01
2022-08-07T11:56:33.777Z,29.22
2022-08-07T12:01:58.939Z,29.32
2022-08-07T12:07:01.210Z,29.47
2022-08-07T12:12:11.536Z,29.69
2022-08-07T12:17:23.268Z,30.03
2022-08-07T12:28:04.221Z,30.69
2022-08-07T12:33:00.515Z,31.14
2022-08-07T12:38:17.859Z,31.27
2022-08-07T12:44:01.725Z,31.5
2022-08-07T12:48:41.077Z,31.79
2022-08-07T12:54:02.475Z,31.91
2022-08-07T12:59:01.881Z,32.13
2022-08-07T13:04:18.893Z,31.82
2022-08-07T13:10:11.088Z,31.3
2022-08-07T13:14:38.421Z,30.7
2022-08-07T13:19:51.877Z,30.32
2022-08-07T13:25:02.706Z,29.97
2022-08-07T13:30:19.193Z,30.23
2022-08-07T13:36:00.059Z,30.71
2022-08-07T13:40:43.202Z,31.22
2022-08-07T13:46:07.815Z,31.16
2022-08-07T13:51:20.410Z,30.84
2022-08-07T13:56:19.728Z,30.58
2022-08-07T14:01:33.337Z,30.35
2022-08-07T14:06:43.888Z,29.96
2022-08-07T14:12:00.175Z,29.77
2022-08-07T14:17:13.325Z,29.83
2022-08-07T14:22:34.269Z,29.34
2022-08-07T14:28:10.132Z,29.19
2022-08-07T14:32:46.190Z,29.2
2022-08-07T14:48:27.166Z,31.95
2022-08-07T14:53:49.677Z,32.69
2022-08-07T14:58:52.564Z,33.04
2022-08-07T15:04:05.417Z,33.45
2022-08-07T15:09:57.336Z,33.82
2022-08-07T15:14:25.580Z,33.87
2022-08-07T15:19:44.219Z,33.79
2022-08-07T15:25:03.190Z,33.14
2022-08-07T15:30:14.388Z,32.78
2022-08-07T15:35:14.429Z,32.63
2022-08-07T15:45:55.369Z,32.77
2022-08-07T15:51:01.804Z,32.83
2022-08-07T15:56:06.055Z,33.59
2022-08-07T16:01:20.255Z,34.31
2022-08-07T16:06:27.863Z,34.67
2022-08-07T16:16:56.943Z,35.46
2022-08-07T16:22:10.656Z,35.6
2022-08-07T16:27:18.469Z,35.65
2022-08-07T16:32:33.298Z,35.19
2022-08-07T16:38:04.986Z,34.71
2022-08-07T16:42:53.835Z,34.78
2022-08-07T16:48:06.045Z,34.9
2022-08-07T16:53:55.911Z,35.08
2022-08-07T16:58:48.127Z,34.72
2022-08-07T17:03:57.857Z,34.39
2022-08-07T17:09:10.113Z,34.31
2022-08-07T17:14:17.750Z,34.45
2022-08-07T17:19:23.933Z,35
2022-08-07T17:24:32.807Z,35.46
2022-08-07T17:30:13.694Z,35.02
2022-08-07T17:35:41.601Z,34.31
2022-08-07T17:40:15.241Z,33.4
2022-08-07T17:45:27.121Z,32.24
2022-08-07T17:50:42.253Z,31.43
2022-08-07T17:55:54.994Z,31.59
2022-08-07T18:01:18.172Z,31.9
2022-08-07T18:06:37.342Z,31.92
2022-08-07T18:11:53.784Z,31.73
2022-08-07T18:16:57.321Z,31.38
2022-08-07T18:22:02.876Z,30.97
2022-08-07T18:27:06.334Z,30.45
2022-08-07T18:32:17.691Z,29.9
2022-08-07T18:38:54.277Z,29.39
2022-08-07T18:42:42.077Z,28.88
2022-08-07T18:48:00.624Z,28.43
2022-08-07T18:53:06.627Z,28.04
2022-08-07T18:58:18.858Z,27.71
2022-08-07T19:03:35.483Z,27.47
2022-08-07T19:08:43.326Z,27.25
2022-08-07T19:13:55.624Z,27.07
2022-08-07T19:19:07.883Z,26.89
2022-08-07T19:24:30.290Z,26.67
2022-08-07T19:30:55.076Z,26.39
2022-08-07T19:34:47.766Z,26.26
2022-08-07T19:40:01.762Z,26.24
2022-08-07T19:45:09.947Z,26.24
2022-08-07T19:50:40.700Z,26.22
2022-08-07T19:55:57.152Z,26.22
2022-08-07T20:00:53.014Z,26.2
2022-08-07T20:06:00.203Z,26.13
2022-08-07T20:11:12.039Z,26.01
2022-08-07T20:16:32.458Z,25.82
2022-08-07T20:21:41.474Z,25.67
2022-08-07T20:26:50.014Z,25.56
2022-08-07T20:32:00.422Z,25.4
2022-08-07T20:37:12.521Z,25.19
2022-08-07T20:47:55.697Z,24.87
2022-08-07T20:52:50.967Z,24.83
2022-08-07T20:58:02.809Z,24.73
2022-08-07T21:03:13.890Z,24.61
2022-08-07T21:08:29.350Z,24.48
2022-08-07T21:13:44.101Z,24.36
2022-08-07T21:18:50.706Z,24.28
2022-08-07T21:29:15.844Z,24.15
2022-08-07T21:34:32.133Z,24.04
2022-08-07T21:39:45.691Z,23.72
2022-08-07T21:50:04.905Z,23.68
2022-08-07T21:55:19.228Z,23.77
2022-08-07T22:00:29.812Z,23.86
2022-08-07T22:05:44.994Z,23.89
2022-08-07T22:16:40.770Z,23.93
2022-08-07T22:26:31.754Z,23.87
2022-08-07T22:31:45.816Z,23.78
2022-08-07T22:36:56.575Z,23.71
2022-08-07T22:42:19.754Z,23.6
2022-08-07T22:47:21.634Z,23.55
2022-08-07T22:52:37.222Z,23.52
2022-08-07T22:57:46.000Z,23.45
2022-08-07T23:02:58.543Z,23.36
2022-08-07T23:08:12.180Z,23.32
2022-08-07T23:18:35.111Z,23.23
2022-08-07T23:24:04.661Z,23.11
2022-08-07T23:28:59.916Z,22.97
2022-08-07T23:34:24.815Z,22.81
2022-08-07T23:39:24.631Z,22.71
2022-08-07T23:44:36.891Z,22.64
2022-08-07T23:49:50.916Z,22.48
2022-08-07T23:55:04.525Z,22.18
